sensor_id;sensor_type;location;lat;lon;timestamp;temperature;humidity
54938;DHT22;52756;52.826;6.214;2022-09-09T00:04:37;16.70;69.70
54938;DHT22;52756;52.826;6.214;2022-09-09T00:07:47;16.70;69.50
54938;DHT22;52756;52.826;6.214;2022-09-09T00:15:40;16.70;69.40
54938;DHT22;52756;52.826;6.214;2022-09-09T00:20:55;16.70;69.30
54938;DHT22;52756;52.826;6.214;2022-09-09T00:23:32;16.70;69.20
54938;DHT22;52756;52.826;6.214;2022-09-09T00:26:09;16.70;69.10
54938;DHT22;52756;52.826;6.214;2022-09-09T00:31:26;16.70;69.00
54938;DHT22;52756;52.826;6.214;2022-09-09T00:33:53;16.70;68.90
54938;DHT22;52756;52.826;6.214;2022-09-09T00:36:23;16.70;68.90
54938;DHT22;52756;52.826;6.214;2022-09-09T00:38:59;16.70;68.90
54938;DHT22;52756;52.826;6.214;2022-09-09T00:42:30;16.70;69.00
54938;DHT22;52756;52.826;6.214;2022-09-09T00:44:37;16.60;69.00
54938;DHT22;52756;52.826;6.214;2022-09-09T00:47:39;16.60;69.30
54938;DHT22;52756;52.826;6.214;2022-09-09T00:52:47;16.60;69.40
54938;DHT22;52756;52.826;6.214;2022-09-09T00:57:57;16.50;69.60
54938;DHT22;52756;52.826;6.214;2022-09-09T01:00:29;16.40;69.70
54938;DHT22;52756;52.826;6.214;2022-09-09T01:03:02;16.40;70.00
54938;DHT22;52756;52.826;6.214;2022-09-09T01:08:00;16.40;70.20
54938;DHT22;52756;52.826;6.214;2022-09-09T01:13:11;16.30;70.30
54938;DHT22;52756;52.826;6.214;2022-09-09T01:15:40;16.30;70.40
54938;DHT22;52756;52.826;6.214;2022-09-09T01:18:11;16.30;70.90
54938;DHT22;52756;52.826;6.214;2022-09-09T01:20:50;16.20;70.50
54938;DHT22;52756;52.826;6.214;2022-09-09T01:28:49;16.10;70.90
54938;DHT22;52756;52.826;6.214;2022-09-09T01:31:21;16.00;71.20
54938;DHT22;52756;52.826;6.214;2022-09-09T01:33:48;16.00;71.50
54938;DHT22;52756;52.826;6.214;2022-09-09T01:38:43;15.90;71.80
54938;DHT22;52756;52.826;6.214;2022-09-09T01:41:08;15.90;71.90
54938;DHT22;52756;52.826;6.214;2022-09-09T01:43:34;15.90;72.20
54938;DHT22;52756;52.826;6.214;2022-09-09T01:46:01;15.80;72.40
54938;DHT22;52756;52.826;6.214;2022-09-09T01:48:28;15.80;72.60
54938;DHT22;52756;52.826;6.214;2022-09-09T01:50:54;15.80;72.70
54938;DHT22;52756;52.826;6.214;2022-09-09T01:53:21;15.70;72.80
54938;DHT22;52756;52.826;6.214;2022-09-09T01:58:45;15.70;73.40
54938;DHT22;52756;52.826;6.214;2022-09-09T02:01:22;15.70;73.60
54938;DHT22;52756;52.826;6.214;2022-09-09T02:03:56;15.70;73.70
54938;DHT22;52756;52.826;6.214;2022-09-09T02:08:56;15.70;74.00
54938;DHT22;52756;52.826;6.214;2022-09-09T02:11:25;15.70;74.30
54938;DHT22;52756;52.826;6.214;2022-09-09T02:14:06;15.60;74.40
54938;DHT22;52756;52.826;6.214;2022-09-09T02:16:41;15.60;74.60
54938;DHT22;52756;52.826;6.214;2022-09-09T02:19:25;15.60;74.80
54938;DHT22;52756;52.826;6.214;2022-09-09T02:21:55;15.70;75.10
54938;DHT22;52756;52.826;6.214;2022-09-09T02:24:22;15.60;75.00
54938;DHT22;52756;52.826;6.214;2022-09-09T02:26:50;15.60;75.10
54938;DHT22;52756;52.826;6.214;2022-09-09T02:29:30;15.60;75.30
54938;DHT22;52756;52.826;6.214;2022-09-09T02:32:00;15.60;75.50
54938;DHT22;52756;52.826;6.214;2022-09-09T02:34:29;15.60;75.60
54938;DHT22;52756;52.826;6.214;2022-09-09T02:36:57;15.60;75.60
54938;DHT22;52756;52.826;6.214;2022-09-09T02:39:25;15.70;75.70
54938;DHT22;52756;52.826;6.214;2022-09-09T02:41:51;15.60;75.70
54938;DHT22;52756;52.826;6.214;2022-09-09T02:44:18;15.70;75.80
54938;DHT22;52756;52.826;6.214;2022-09-09T02:57:54;15.70;75.80
54938;DHT22;52756;52.826;6.214;2022-09-09T03:00:26;15.70;75.80
54938;DHT22;52756;52.826;6.214;2022-09-09T03:02:53;15.70;75.90
54938;DHT22;52756;52.826;6.214;2022-09-09T03:05:20;15.70;75.90
54938;DHT22;52756;52.826;6.214;2022-09-09T03:07:46;15.70;75.90
54938;DHT22;52756;52.826;6.214;2022-09-09T03:10:12;15.70;75.90
54938;DHT22;52756;52.826;6.214;2022-09-09T03:12:39;15.80;76.00
54938;DHT22;52756;52.826;6.214;2022-09-09T03:15:05;15.80;76.00
54938;DHT22;52756;52.826;6.214;2022-09-09T03:17:31;15.80;76.10
54938;DHT22;52756;52.826;6.214;2022-09-09T03:19:57;15.80;76.00
54938;DHT22;52756;52.826;6.214;2022-09-09T03:22:24;15.80;76.00
54938;DHT22;52756;52.826;6.214;2022-09-09T03:24:51;15.80;76.00
54938;DHT22;52756;52.826;6.214;2022-09-09T03:27:18;15.80;76.00
54938;DHT22;52756;52.826;6.214;2022-09-09T03:29:45;15.80;76.00
54938;DHT22;52756;52.826;6.214;2022-09-09T03:32:11;15.80;76.10
54938;DHT22;52756;52.826;6.214;2022-09-09T03:34:37;15.80;76.10
54938;DHT22;52756;52.826;6.214;2022-09-09T03:37:06;15.80;76.10
54938;DHT22;52756;52.826;6.214;2022-09-09T03:39:31;15.80;76.00
54938;DHT22;52756;52.826;6.214;2022-09-09T03:41:57;15.70;76.00
54938;DHT22;52756;52.826;6.214;2022-09-09T03:44:23;15.80;76.00
54938;DHT22;52756;52.826;6.214;2022-09-09T03:46:48;15.80;76.00
54938;DHT22;52756;52.826;6.214;2022-09-09T03:49:14;15.80;76.00
54938;DHT22;52756;52.826;6.214;2022-09-09T03:51:41;15.80;75.90
54938;DHT22;52756;52.826;6.214;2022-09-09T03:54:07;15.80;76.00
54938;DHT22;52756;52.826;6.214;2022-09-09T03:56:35;15.70;75.90
54938;DHT22;52756;52.826;6.214;2022-09-09T03:59:02;15.70;75.90
54938;DHT22;52756;52.826;6.214;2022-09-09T04:01:28;15.70;75.80
54938;DHT22;52756;52.826;6.214;2022-09-09T04:03:54;15.70;75.90
54938;DHT22;52756;52.826;6.214;2022-09-09T04:06:24;15.70;76.00
54938;DHT22;52756;52.826;6.214;2022-09-09T04:08:50;15.70;76.10
54938;DHT22;52756;52.826;6.214;2022-09-09T04:11:17;15.60;76.00
54938;DHT22;52756;52.826;6.214;2022-09-09T04:13:43;15.70;76.10
54938;DHT22;52756;52.826;6.214;2022-09-09T04:16:11;15.70;76.10
54938;DHT22;52756;52.826;6.214;2022-09-09T04:18:37;15.70;76.10
54938;DHT22;52756;52.826;6.214;2022-09-09T04:21:03;15.70;76.10
54938;DHT22;52756;52.826;6.214;2022-09-09T04:23:29;15.60;76.00
54938;DHT22;52756;52.826;6.214;2022-09-09T04:25:57;15.60;75.90
54938;DHT22;52756;52.826;6.214;2022-09-09T04:28:25;15.60;75.90
54938;DHT22;52756;52.826;6.214;2022-09-09T04:30:51;15.60;76.00
54938;DHT22;52756;52.826;6.214;2022-09-09T04:33:18;15.60;75.90
54938;DHT22;52756;52.826;6.214;2022-09-09T04:35:48;15.60;75.90
54938;DHT22;52756;52.826;6.214;2022-09-09T04:38:15;15.60;75.90
54938;DHT22;52756;52.826;6.214;2022-09-09T04:40:43;15.50;75.80
54938;DHT22;52756;52.826;6.214;2022-09-09T04:43:09;15.50;75.90
54938;DHT22;52756;52.826;6.214;2022-09-09T04:45:35;15.50;75.90
54938;DHT22;52756;52.826;6.214;2022-09-09T04:48:02;15.50;75.80
54938;DHT22;52756;52.826;6.214;2022-09-09T04:50:28;15.50;75.90
54938;DHT22;52756;52.826;6.214;2022-09-09T04:52:54;15.50;75.90
54938;DHT22;52756;52.826;6.214;2022-09-09T04:55:19;15.50;75.90
54938;DHT22;52756;52.826;6.214;2022-09-09T04:57:45;15.40;76.00
54938;DHT22;52756;52.826;6.214;2022-09-09T05:00:12;15.40;76.00
54938;DHT22;52756;52.826;6.214;2022-09-09T05:02:39;15.40;76.10
54938;DHT22;52756;52.826;6.214;2022-09-09T05:05:05;15.40;76.10
54938;DHT22;52756;52.826;6.214;2022-09-09T05:07:31;15.30;76.00
54938;DHT22;52756;52.826;6.214;2022-09-09T05:09:57;15.30;76.00
54938;DHT22;52756;52.826;6.214;2022-09-09T05:12:23;15.30;76.60
54938;DHT22;52756;52.826;6.214;2022-09-09T05:14:51;15.30;76.20
54938;DHT22;52756;52.826;6.214;2022-09-09T05:17:17;15.20;76.30
54938;DHT22;52756;52.826;6.214;2022-09-09T05:19:43;15.30;76.40
54938;DHT22;52756;52.826;6.214;2022-09-09T05:22:10;15.20;76.40
54938;DHT22;52756;52.826;6.214;2022-09-09T05:24:37;15.20;76.40
54938;DHT22;52756;52.826;6.214;2022-09-09T05:27:04;15.20;76.30
54938;DHT22;52756;52.826;6.214;2022-09-09T05:29:31;15.20;76.30
54938;DHT22;52756;52.826;6.214;2022-09-09T05:31:59;15.20;76.30
54938;DHT22;52756;52.826;6.214;2022-09-09T05:34:24;15.20;76.30
54938;DHT22;52756;52.826;6.214;2022-09-09T05:36:50;15.10;76.20
54938;DHT22;52756;52.826;6.214;2022-09-09T05:39:17;15.10;76.20
54938;DHT22;52756;52.826;6.214;2022-09-09T05:41:43;15.10;76.30
54938;DHT22;52756;52.826;6.214;2022-09-09T05:44:09;15.10;76.40
54938;DHT22;52756;52.826;6.214;2022-09-09T05:46:35;15.10;76.80
54938;DHT22;52756;52.826;6.214;2022-09-09T05:49:02;15.10;76.50
54938;DHT22;52756;52.826;6.214;2022-09-09T05:51:28;15.00;76.40
54938;DHT22;52756;52.826;6.214;2022-09-09T05:53:56;15.00;76.40
54938;DHT22;52756;52.826;6.214;2022-09-09T05:56:26;15.00;76.50
54938;DHT22;52756;52.826;6.214;2022-09-09T05:58:52;15.00;76.50
54938;DHT22;52756;52.826;6.214;2022-09-09T06:01:30;15.00;76.60
54938;DHT22;52756;52.826;6.214;2022-09-09T06:03:56;15.00;76.70
54938;DHT22;52756;52.826;6.214;2022-09-09T06:06:25;15.00;76.70
54938;DHT22;52756;52.826;6.214;2022-09-09T06:08:53;14.90;76.70
54938;DHT22;52756;52.826;6.214;2022-09-09T06:11:21;15.00;76.80
54938;DHT22;52756;52.826;6.214;2022-09-09T06:13:48;14.90;76.80
54938;DHT22;52756;52.826;6.214;2022-09-09T06:16:18;14.90;76.80
54938;DHT22;52756;52.826;6.214;2022-09-09T06:18:45;14.90;76.90
54938;DHT22;52756;52.826;6.214;2022-09-09T06:21:31;14.90;76.70
54938;DHT22;52756;52.826;6.214;2022-09-09T06:23:58;14.90;76.70
54938;DHT22;52756;52.826;6.214;2022-09-09T06:26:27;14.90;76.80
54938;DHT22;52756;52.826;6.214;2022-09-09T06:28:54;15.00;76.90
54938;DHT22;52756;52.826;6.214;2022-09-09T06:31:22;14.90;76.90
54938;DHT22;52756;52.826;6.214;2022-09-09T06:33:50;15.00;77.00
54938;DHT22;52756;52.826;6.214;2022-09-09T06:36:21;15.00;77.10
54938;DHT22;52756;52.826;6.214;2022-09-09T06:38:47;15.00;77.10
54938;DHT22;52756;52.826;6.214;2022-09-09T06:41:15;15.00;77.10
54938;DHT22;52756;52.826;6.214;2022-09-09T06:43:41;15.00;77.20
54938;DHT22;52756;52.826;6.214;2022-09-09T06:46:10;15.00;77.20
54938;DHT22;52756;52.826;6.214;2022-09-09T06:48:38;15.00;77.30
54938;DHT22;52756;52.826;6.214;2022-09-09T06:51:09;15.10;77.40
54938;DHT22;52756;52.826;6.214;2022-09-09T06:53:37;15.10;77.60
54938;DHT22;52756;52.826;6.214;2022-09-09T06:58:35;15.10;77.60
54938;DHT22;52756;52.826;6.214;2022-09-09T07:01:05;15.10;77.60
54938;DHT22;52756;52.826;6.214;2022-09-09T07:03:32;15.20;77.80
54938;DHT22;52756;52.826;6.214;2022-09-09T07:05:58;15.30;77.80
54938;DHT22;52756;52.826;6.214;2022-09-09T07:08:24;15.30;77.70
54938;DHT22;52756;52.826;6.214;2022-09-09T07:10:51;15.30;77.70
54938;DHT22;52756;52.826;6.214;2022-09-09T07:13:23;15.30;77.80
54938;DHT22;52756;52.826;6.214;2022-09-09T07:15:51;15.50;78.20
54938;DHT22;52756;52.826;6.214;2022-09-09T07:18:17;15.50;78.30
54938;DHT22;52756;52.826;6.214;2022-09-09T07:20:43;15.60;78.20
54938;DHT22;52756;52.826;6.214;2022-09-09T07:23:08;15.60;78.10
54938;DHT22;52756;52.826;6.214;2022-09-09T07:25:34;15.70;78.30
54938;DHT22;52756;52.826;6.214;2022-09-09T07:28:00;15.80;78.40
54938;DHT22;52756;52.826;6.214;2022-09-09T07:30:25;15.90;78.50
54938;DHT22;52756;52.826;6.214;2022-09-09T07:32:52;16.00;78.60
54938;DHT22;52756;52.826;6.214;2022-09-09T07:35:17;16.10;78.30
54938;DHT22;52756;52.826;6.214;2022-09-09T07:37:43;16.20;78.00
54938;DHT22;52756;52.826;6.214;2022-09-09T07:40:10;16.30;77.90
54938;DHT22;52756;52.826;6.214;2022-09-09T07:42:36;16.40;77.80
54938;DHT22;52756;52.826;6.214;2022-09-09T07:45:03;16.50;77.80
54938;DHT22;52756;52.826;6.214;2022-09-09T07:47:29;16.60;77.50
54938;DHT22;52756;52.826;6.214;2022-09-09T07:49:55;16.80;77.30
54938;DHT22;52756;52.826;6.214;2022-09-09T07:52:21;16.90;77.10
54938;DHT22;52756;52.826;6.214;2022-09-09T07:54:47;17.00;76.70
54938;DHT22;52756;52.826;6.214;2022-09-09T07:57:13;17.10;75.90
54938;DHT22;52756;52.826;6.214;2022-09-09T07:59:38;17.30;75.50
54938;DHT22;52756;52.826;6.214;2022-09-09T08:02:04;17.30;74.80
54938;DHT22;52756;52.826;6.214;2022-09-09T08:04:30;17.40;74.50
54938;DHT22;52756;52.826;6.214;2022-09-09T08:06:59;17.40;74.80
54938;DHT22;52756;52.826;6.214;2022-09-09T08:09:26;17.60;74.90
54938;DHT22;52756;52.826;6.214;2022-09-09T08:11:57;17.70;74.40
54938;DHT22;52756;52.826;6.214;2022-09-09T08:14:23;17.80;74.00
54938;DHT22;52756;52.826;6.214;2022-09-09T08:16:50;17.90;74.10
54938;DHT22;52756;52.826;6.214;2022-09-09T08:19:16;18.10;73.80
54938;DHT22;52756;52.826;6.214;2022-09-09T08:21:42;18.20;73.60
54938;DHT22;52756;52.826;6.214;2022-09-09T08:24:10;18.40;73.50
54938;DHT22;52756;52.826;6.214;2022-09-09T08:26:42;18.70;72.40
54938;DHT22;52756;52.826;6.214;2022-09-09T08:29:09;18.90;71.60
54938;DHT22;52756;52.826;6.214;2022-09-09T08:31:44;19.00;70.80
54938;DHT22;52756;52.826;6.214;2022-09-09T08:34:11;19.20;70.40
54938;DHT22;52756;52.826;6.214;2022-09-09T08:36:39;19.40;70.00
54938;DHT22;52756;52.826;6.214;2022-09-09T08:39:06;19.50;69.50
54938;DHT22;52756;52.826;6.214;2022-09-09T08:44:23;19.70;68.70
54938;DHT22;52756;52.826;6.214;2022-09-09T08:47:22;19.90;68.10
54938;DHT22;52756;52.826;6.214;2022-09-09T08:52:57;19.90;67.80
54938;DHT22;52756;52.826;6.214;2022-09-09T08:58:20;20.00;67.30
54938;DHT22;52756;52.826;6.214;2022-09-09T09:06:25;20.10;67.00
54938;DHT22;52756;52.826;6.214;2022-09-09T09:14:19;20.20;65.80
54938;DHT22;52756;52.826;6.214;2022-09-09T09:19:17;20.10;65.40
54938;DHT22;52756;52.826;6.214;2022-09-09T09:21:58;20.10;65.60
54938;DHT22;52756;52.826;6.214;2022-09-09T09:27:13;20.10;65.40
54938;DHT22;52756;52.826;6.214;2022-09-09T09:29:40;20.10;65.70
54938;DHT22;52756;52.826;6.214;2022-09-09T09:32:11;20.10;65.00
54938;DHT22;52756;52.826;6.214;2022-09-09T09:34:39;20.10;64.70
54938;DHT22;52756;52.826;6.214;2022-09-09T09:37:16;20.10;64.40
54938;DHT22;52756;52.826;6.214;2022-09-09T09:39:45;20.20;64.50
54938;DHT22;52756;52.826;6.214;2022-09-09T09:42:16;20.10;64.60
54938;DHT22;52756;52.826;6.214;2022-09-09T09:44:43;20.10;65.20
54938;DHT22;52756;52.826;6.214;2022-09-09T09:47:11;20.10;65.00
54938;DHT22;52756;52.826;6.214;2022-09-09T09:49:37;20.10;64.70
54938;DHT22;52756;52.826;6.214;2022-09-09T09:52:05;20.20;64.60
54938;DHT22;52756;52.826;6.214;2022-09-09T09:54:38;20.20;63.90
54938;DHT22;52756;52.826;6.214;2022-09-09T09:57:30;20.30;63.80
54938;DHT22;52756;52.826;6.214;2022-09-09T10:00:13;20.40;63.80
54938;DHT22;52756;52.826;6.214;2022-09-09T10:02:41;20.40;63.90
54938;DHT22;52756;52.826;6.214;2022-09-09T10:05:23;20.40;63.60
54938;DHT22;52756;52.826;6.214;2022-09-09T10:08:10;20.50;63.00
54938;DHT22;52756;52.826;6.214;2022-09-09T10:16:16;20.50;62.00
54938;DHT22;52756;52.826;6.214;2022-09-09T10:19:00;20.50;61.70
54938;DHT22;52756;52.826;6.214;2022-09-09T10:21:31;20.50;62.20
54938;DHT22;52756;52.826;6.214;2022-09-09T10:24:25;20.50;62.00
54938;DHT22;52756;52.826;6.214;2022-09-09T10:30:12;20.50;62.00
54938;DHT22;52756;52.826;6.214;2022-09-09T10:38:42;20.60;61.60
54938;DHT22;52756;52.826;6.214;2022-09-09T10:44:55;20.60;61.70
54938;DHT22;52756;52.826;6.214;2022-09-09T10:55:43;20.60;61.60
54938;DHT22;52756;52.826;6.214;2022-09-09T10:58:15;20.60;61.70
54938;DHT22;52756;52.826;6.214;2022-09-09T11:00:51;20.60;62.10
54938;DHT22;52756;52.826;6.214;2022-09-09T11:03:39;20.60;62.40
54938;DHT22;52756;52.826;6.214;2022-09-09T11:06:14;20.60;61.50
54938;DHT22;52756;52.826;6.214;2022-09-09T11:08:42;20.60;61.40
54938;DHT22;52756;52.826;6.214;2022-09-09T11:11:36;20.50;61.20
54938;DHT22;52756;52.826;6.214;2022-09-09T11:14:09;20.50;61.10
54938;DHT22;52756;52.826;6.214;2022-09-09T11:17:00;20.50;61.40
54938;DHT22;52756;52.826;6.214;2022-09-09T11:19:39;20.50;61.20
54938;DHT22;52756;52.826;6.214;2022-09-09T11:24:57;20.40;61.60
54938;DHT22;52756;52.826;6.214;2022-09-09T11:27:32;20.50;62.20
54938;DHT22;52756;52.826;6.214;2022-09-09T11:30:20;20.50;61.70
54938;DHT22;52756;52.826;6.214;2022-09-09T11:38:32;20.50;61.10
54938;DHT22;52756;52.826;6.214;2022-09-09T11:41:05;20.50;60.60
54938;DHT22;52756;52.826;6.214;2022-09-09T11:43:41;20.50;61.20
54938;DHT22;52756;52.826;6.214;2022-09-09T11:46:07;20.50;60.80
54938;DHT22;52756;52.826;6.214;2022-09-09T11:48:36;20.50;60.60
54938;DHT22;52756;52.826;6.214;2022-09-09T11:51:10;20.50;60.40
54938;DHT22;52756;52.826;6.214;2022-09-09T11:53:58;20.60;61.00
54938;DHT22;52756;52.826;6.214;2022-09-09T11:56:30;20.70;60.20
54938;DHT22;52756;52.826;6.214;2022-09-09T11:58:59;20.80;60.20
54938;DHT22;52756;52.826;6.214;2022-09-09T12:01:43;20.80;59.40
54938;DHT22;52756;52.826;6.214;2022-09-09T12:04:21;20.80;58.60
54938;DHT22;52756;52.826;6.214;2022-09-09T12:12:28;20.70;59.10
54938;DHT22;52756;52.826;6.214;2022-09-09T12:17:27;20.80;58.60
54938;DHT22;52756;52.826;6.214;2022-09-09T12:28:17;20.60;58.80
54938;DHT22;52756;52.826;6.214;2022-09-09T12:33:36;20.50;61.40
54938;DHT22;52756;52.826;6.214;2022-09-09T12:36:03;20.50;62.30
54938;DHT22;52756;52.826;6.214;2022-09-09T12:38:40;20.50;63.30
54938;DHT22;52756;52.826;6.214;2022-09-09T12:41:21;20.50;64.20
54938;DHT22;52756;52.826;6.214;2022-09-09T12:43:47;20.50;64.40
54938;DHT22;52756;52.826;6.214;2022-09-09T12:46:30;20.50;64.20
54938;DHT22;52756;52.826;6.214;2022-09-09T12:48:58;20.50;62.80
54938;DHT22;52756;52.826;6.214;2022-09-09T12:51:30;20.50;61.10
54938;DHT22;52756;52.826;6.214;2022-09-09T12:53:57;20.40;61.40
54938;DHT22;52756;52.826;6.214;2022-09-09T12:56:29;20.40;61.30
54938;DHT22;52756;52.826;6.214;2022-09-09T12:58:57;20.40;60.90
54938;DHT22;52756;52.826;6.214;2022-09-09T13:01:27;20.30;61.20
54938;DHT22;52756;52.826;6.214;2022-09-09T13:03:54;20.30;61.00
54938;DHT22;52756;52.826;6.214;2022-09-09T13:06:31;20.30;61.00
54938;DHT22;52756;52.826;6.214;2022-09-09T13:09:00;20.20;61.20
54938;DHT22;52756;52.826;6.214;2022-09-09T13:11:30;20.10;61.90
54938;DHT22;52756;52.826;6.214;2022-09-09T13:13:57;20.10;62.80
54938;DHT22;52756;52.826;6.214;2022-09-09T13:16:27;20.10;63.40
54938;DHT22;52756;52.826;6.214;2022-09-09T13:19:13;20.10;64.00
54938;DHT22;52756;52.826;6.214;2022-09-09T13:21:40;20.00;64.40
54938;DHT22;52756;52.826;6.214;2022-09-09T13:24:27;20.00;65.30
54938;DHT22;52756;52.826;6.214;2022-09-09T13:26:59;20.00;65.30
54938;DHT22;52756;52.826;6.214;2022-09-09T13:29:27;20.00;65.40
54938;DHT22;52756;52.826;6.214;2022-09-09T13:31:54;19.90;65.30
54938;DHT22;52756;52.826;6.214;2022-09-09T13:34:28;20.00;65.50
54938;DHT22;52756;52.826;6.214;2022-09-09T13:37:06;19.90;65.60
54938;DHT22;52756;52.826;6.214;2022-09-09T13:39:36;19.80;65.60
54938;DHT22;52756;52.826;6.214;2022-09-09T13:42:04;19.70;66.60
54938;DHT22;52756;52.826;6.214;2022-09-09T13:44:38;19.70;67.50
54938;DHT22;52756;52.826;6.214;2022-09-09T13:47:32;19.70;68.20
54938;DHT22;52756;52.826;6.214;2022-09-09T13:50:20;19.70;68.40
54938;DHT22;52756;52.826;6.214;2022-09-09T13:52:53;19.70;68.10
54938;DHT22;52756;52.826;6.214;2022-09-09T13:55:20;19.70;67.40
54938;DHT22;52756;52.826;6.214;2022-09-09T13:57:55;19.60;67.80
54938;DHT22;52756;52.826;6.214;2022-09-09T14:00:22;19.60;67.70
54938;DHT22;52756;52.826;6.214;2022-09-09T14:02:48;19.60;67.80
54938;DHT22;52756;52.826;6.214;2022-09-09T14:05:14;19.60;67.80
54938;DHT22;52756;52.826;6.214;2022-09-09T14:07:42;19.60;68.00
54938;DHT22;52756;52.826;6.214;2022-09-09T14:10:08;19.60;67.90
54938;DHT22;52756;52.826;6.214;2022-09-09T14:12:34;19.70;67.80
54938;DHT22;52756;52.826;6.214;2022-09-09T14:15:02;19.60;67.30
54938;DHT22;52756;52.826;6.214;2022-09-09T14:17:28;19.60;66.60
54938;DHT22;52756;52.826;6.214;2022-09-09T14:19:57;19.70;66.20
54938;DHT22;52756;52.826;6.214;2022-09-09T14:22:23;19.60;66.30
54938;DHT22;52756;52.826;6.214;2022-09-09T14:24:49;19.70;66.50
54938;DHT22;52756;52.826;6.214;2022-09-09T14:27:16;19.60;65.80
54938;DHT22;52756;52.826;6.214;2022-09-09T14:29:43;19.60;65.50
54938;DHT22;52756;52.826;6.214;2022-09-09T14:32:10;19.60;65.10
54938;DHT22;52756;52.826;6.214;2022-09-09T14:34:36;19.60;65.10
54938;DHT22;52756;52.826;6.214;2022-09-09T14:37:02;19.60;64.70
54938;DHT22;52756;52.826;6.214;2022-09-09T14:39:27;19.60;64.40
54938;DHT22;52756;52.826;6.214;2022-09-09T14:41:53;19.60;64.40
54938;DHT22;52756;52.826;6.214;2022-09-09T14:44:19;19.50;64.50
54938;DHT22;52756;52.826;6.214;2022-09-09T14:46:44;19.50;64.50
54938;DHT22;52756;52.826;6.214;2022-09-09T14:49:10;19.50;64.30
54938;DHT22;52756;52.826;6.214;2022-09-09T14:51:38;19.50;64.20
54938;DHT22;52756;52.826;6.214;2022-09-09T14:54:04;19.50;64.90
54938;DHT22;52756;52.826;6.214;2022-09-09T14:56:32;19.50;64.40
54938;DHT22;52756;52.826;6.214;2022-09-09T14:59:00;19.50;64.20
54938;DHT22;52756;52.826;6.214;2022-09-09T15:01:30;19.50;64.60
54938;DHT22;52756;52.826;6.214;2022-09-09T15:04:00;19.50;64.80
54938;DHT22;52756;52.826;6.214;2022-09-09T15:06:29;19.50;64.80
54938;DHT22;52756;52.826;6.214;2022-09-09T15:08:55;19.50;64.70
54938;DHT22;52756;52.826;6.214;2022-09-09T15:11:27;19.50;64.60
54938;DHT22;52756;52.826;6.214;2022-09-09T15:13:56;19.50;64.40
54938;DHT22;52756;52.826;6.214;2022-09-09T15:16:24;19.50;64.40
54938;DHT22;52756;52.826;6.214;2022-09-09T15:18:52;19.50;64.40
54938;DHT22;52756;52.826;6.214;2022-09-09T15:21:22;19.50;64.20
54938;DHT22;52756;52.826;6.214;2022-09-09T15:23:49;19.60;64.20
54938;DHT22;52756;52.826;6.214;2022-09-09T15:26:15;19.60;64.00
54938;DHT22;52756;52.826;6.214;2022-09-09T15:28:41;19.60;64.10
54938;DHT22;52756;52.826;6.214;2022-09-09T15:31:30;19.60;63.90
54938;DHT22;52756;52.826;6.214;2022-09-09T15:36:29;19.60;63.50
54938;DHT22;52756;52.826;6.214;2022-09-09T15:38:55;19.60;63.50
54938;DHT22;52756;52.826;6.214;2022-09-09T15:41:22;19.60;63.90
54938;DHT22;52756;52.826;6.214;2022-09-09T15:43:50;19.60;63.50
54938;DHT22;52756;52.826;6.214;2022-09-09T15:46:35;19.60;63.90
54938;DHT22;52756;52.826;6.214;2022-09-09T15:49:14;19.50;63.90
54938;DHT22;52756;52.826;6.214;2022-09-09T15:51:42;19.50;64.10
54938;DHT22;52756;52.826;6.214;2022-09-09T15:54:10;19.40;64.40
54938;DHT22;52756;52.826;6.214;2022-09-09T15:56:37;19.40;64.70
54938;DHT22;52756;52.826;6.214;2022-09-09T15:59:03;19.40;65.10
54938;DHT22;52756;52.826;6.214;2022-09-09T16:01:29;19.30;65.40
54938;DHT22;52756;52.826;6.214;2022-09-09T16:03:57;19.30;66.00
54938;DHT22;52756;52.826;6.214;2022-09-09T16:06:24;19.30;66.40
54938;DHT22;52756;52.826;6.214;2022-09-09T16:08:52;19.20;66.90
54938;DHT22;52756;52.826;6.214;2022-09-09T16:11:34;19.10;67.30
54938;DHT22;52756;52.826;6.214;2022-09-09T16:14:00;19.10;67.70
54938;DHT22;52756;52.826;6.214;2022-09-09T16:16:27;19.00;67.90
54938;DHT22;52756;52.826;6.214;2022-09-09T16:18:56;19.00;68.10
54938;DHT22;52756;52.826;6.214;2022-09-09T16:21:26;18.90;68.30
54938;DHT22;52756;52.826;6.214;2022-09-09T16:23:55;18.90;68.90
54938;DHT22;52756;52.826;6.214;2022-09-09T16:26:21;18.90;69.00
54938;DHT22;52756;52.826;6.214;2022-09-09T16:28:47;18.80;69.10
54938;DHT22;52756;52.826;6.214;2022-09-09T16:31:19;18.80;68.90
54938;DHT22;52756;52.826;6.214;2022-09-09T16:33:46;18.80;69.10
54938;DHT22;52756;52.826;6.214;2022-09-09T16:36:16;18.80;69.40
54938;DHT22;52756;52.826;6.214;2022-09-09T16:38:42;18.80;69.30
54938;DHT22;52756;52.826;6.214;2022-09-09T16:41:12;18.80;69.50
54938;DHT22;52756;52.826;6.214;2022-09-09T16:43:39;18.80;69.60
54938;DHT22;52756;52.826;6.214;2022-09-09T16:46:26;18.70;69.50
54938;DHT22;52756;52.826;6.214;2022-09-09T16:48:55;18.80;69.70
54938;DHT22;52756;52.826;6.214;2022-09-09T16:51:23;18.80;69.80
54938;DHT22;52756;52.826;6.214;2022-09-09T16:53:50;18.70;69.70
54938;DHT22;52756;52.826;6.214;2022-09-09T16:56:19;18.70;69.80
54938;DHT22;52756;52.826;6.214;2022-09-09T16:58:52;18.70;69.90
54938;DHT22;52756;52.826;6.214;2022-09-09T17:01:25;18.70;70.10
54938;DHT22;52756;52.826;6.214;2022-09-09T17:03:55;18.70;69.90
54938;DHT22;52756;52.826;6.214;2022-09-09T17:06:21;18.60;70.00
54938;DHT22;52756;52.826;6.214;2022-09-09T17:08:46;18.60;69.80
54938;DHT22;52756;52.826;6.214;2022-09-09T17:11:18;18.60;69.70
54938;DHT22;52756;52.826;6.214;2022-09-09T17:13:47;18.60;69.80
54938;DHT22;52756;52.826;6.214;2022-09-09T17:16:16;18.50;69.70
54938;DHT22;52756;52.826;6.214;2022-09-09T17:18:42;18.60;70.10
54938;DHT22;52756;52.826;6.214;2022-09-09T17:21:11;18.50;70.10
54938;DHT22;52756;52.826;6.214;2022-09-09T17:23:38;18.50;70.20
54938;DHT22;52756;52.826;6.214;2022-09-09T17:26:09;18.40;70.30
54938;DHT22;52756;52.826;6.214;2022-09-09T17:28:37;18.30;70.30
54938;DHT22;52756;52.826;6.214;2022-09-09T17:31:05;18.20;70.40
54938;DHT22;52756;52.826;6.214;2022-09-09T17:33:38;18.20;70.70
54938;DHT22;52756;52.826;6.214;2022-09-09T17:36:18;18.10;71.00
54938;DHT22;52756;52.826;6.214;2022-09-09T17:38:45;18.10;71.20
54938;DHT22;52756;52.826;6.214;2022-09-09T17:41:23;18.10;71.20
54938;DHT22;52756;52.826;6.214;2022-09-09T17:43:50;18.00;71.20
54938;DHT22;52756;52.826;6.214;2022-09-09T17:46:27;17.90;71.20
54938;DHT22;52756;52.826;6.214;2022-09-09T17:49:05;17.90;71.50
54938;DHT22;52756;52.826;6.214;2022-09-09T17:51:32;17.90;71.50
54938;DHT22;52756;52.826;6.214;2022-09-09T17:54:02;17.80;71.50
54938;DHT22;52756;52.826;6.214;2022-09-09T17:56:30;17.80;71.60
54938;DHT22;52756;52.826;6.214;2022-09-09T17:58:56;17.80;71.60
54938;DHT22;52756;52.826;6.214;2022-09-09T18:01:25;17.70;71.70